DLH9800 ENSB-EDDH
Flight info
| Callsign | DLH9800 |
|---|---|
| Flight time | N/A |
| Altitude | 39000 |
| Route | INPAR M604 NONVU M609 UTUNA P601 NEDZA P615 ALS M852 POVEL Z94 KENIG Z20 ORTAG Z117 BAMKI Z94 VAGAB Y231 AMOSA N869 DKB DCT GEBNO |
| Aircraft | A343/H-SDE2E3FGHIJ4J5M1RWXY/LB1D1 |
Departure
| Time | N/A |
|---|---|
| Airport | Svalbard Airport, Longyear (ENSB) |
Arrival
| Time | 2026-04-26 18:52 |
|---|---|
| Airport | Hamburg Helmut Schmidt Airport (EDDH) |
| Time | Latitude | Longitude | Altitude | Speed | Heading |
|---|---|---|---|---|---|
| 2026-04-26 18:15 | 57.36212 | 10.05619 | 39257 ft | 509 kts | 185° |
| 2026-04-26 18:15 | 57.32695 | 10.05477 | 39259 ft | 510 kts | 185° |
| 2026-04-26 18:16 | 57.25609 | 10.05195 | 39260 ft | 506 kts | 185° |
| 2026-04-26 18:16 | 57.18774 | 10.04941 | 39259 ft | 483 kts | 185° |
| 2026-04-26 18:16 | 57.15416 | 10.04812 | 39267 ft | 481 kts | 185° |
| 2026-04-26 18:17 | 57.08759 | 10.04543 | 39268 ft | 481 kts | 185° |
| 2026-04-26 18:17 | 57.02025 | 10.04273 | 39264 ft | 481 kts | 185° |
| 2026-04-26 18:18 | 56.95348 | 10.04013 | 39265 ft | 482 kts | 185° |
| 2026-04-26 18:18 | 56.88659 | 10.03754 | 39259 ft | 483 kts | 185° |
| 2026-04-26 18:19 | 56.81915 | 10.03495 | 39260 ft | 483 kts | 185° |
| 2026-04-26 18:19 | 56.75218 | 10.03239 | 39262 ft | 483 kts | 185° |
| 2026-04-26 18:20 | 56.68459 | 10.02982 | 39255 ft | 483 kts | 185° |
| 2026-04-26 18:20 | 56.62841 | 10.02768 | 39260 ft | 483 kts | 185° |
| 2026-04-26 18:21 | 56.55044 | 10.02471 | 39257 ft | 483 kts | 185° |
| 2026-04-26 18:21 | 56.48300 | 10.02217 | 39257 ft | 483 kts | 185° |
| 2026-04-26 18:22 | 56.41602 | 10.01965 | 39254 ft | 483 kts | 185° |
| 2026-04-26 18:22 | 56.34854 | 10.01712 | 39263 ft | 483 kts | 185° |
| 2026-04-26 18:23 | 56.28136 | 10.01460 | 39265 ft | 483 kts | 185° |
| 2026-04-26 18:23 | 56.21441 | 10.01211 | 39265 ft | 483 kts | 185° |
| 2026-04-26 18:24 | 56.14689 | 10.00960 | 39260 ft | 483 kts | 185° |
| 2026-04-26 18:24 | 56.07995 | 10.00713 | 39269 ft | 482 kts | 185° |
| 2026-04-26 18:25 | 56.01305 | 10.00467 | 39272 ft | 482 kts | 185° |
| 2026-04-26 18:25 | 55.94572 | 10.00218 | 39266 ft | 482 kts | 185° |
| 2026-04-26 18:26 | 55.87849 | 9.99970 | 39260 ft | 482 kts | 185° |
| 2026-04-26 18:26 | 55.81156 | 9.99725 | 39268 ft | 482 kts | 185° |
| 2026-04-26 18:27 | 55.74484 | 9.99480 | 39264 ft | 482 kts | 185° |
| 2026-04-26 18:27 | 55.67789 | 9.99236 | 39268 ft | 482 kts | 185° |
| 2026-04-26 18:28 | 55.61085 | 9.98992 | 39055 ft | 482 kts | 185° |
| 2026-04-26 18:28 | 55.57709 | 9.98870 | 38800 ft | 482 kts | 185° |
| 2026-04-26 18:28 | 55.54371 | 9.98750 | 38529 ft | 482 kts | 185° |
| 2026-04-26 18:29 | 55.51033 | 9.98631 | 38246 ft | 482 kts | 185° |
| 2026-04-26 18:29 | 55.47644 | 9.98510 | 37929 ft | 481 kts | 185° |
| 2026-04-26 18:29 | 55.44328 | 9.98393 | 37380 ft | 481 kts | 185° |
| 2026-04-26 18:29 | 55.40970 | 9.98274 | 36736 ft | 482 kts | 185° |
| 2026-04-26 18:30 | 55.37643 | 9.98155 | 36064 ft | 483 kts | 185° |
| 2026-04-26 18:30 | 55.34255 | 9.98033 | 35363 ft | 486 kts | 185° |
| 2026-04-26 18:30 | 55.30888 | 9.97913 | 34694 ft | 488 kts | 185° |
| 2026-04-26 18:30 | 55.27477 | 9.97792 | 34000 ft | 489 kts | 185° |
| 2026-04-26 18:31 | 55.24051 | 9.97672 | 33207 ft | 490 kts | 185° |
| 2026-04-26 18:31 | 55.20677 | 9.97553 | 32402 ft | 492 kts | 185° |
| 2026-04-26 18:31 | 55.17218 | 9.97431 | 31628 ft | 493 kts | 185° |
| 2026-04-26 18:31 | 55.13778 | 9.97312 | 30998 ft | 491 kts | 185° |
| 2026-04-26 18:32 | 55.10417 | 9.97197 | 30393 ft | 488 kts | 185° |
| 2026-04-26 18:32 | 55.06999 | 9.97080 | 29768 ft | 484 kts | 185° |
| 2026-04-26 18:32 | 55.03688 | 9.96967 | 29181 ft | 479 kts | 185° |
| 2026-04-26 18:32 | 55.00360 | 9.96853 | 28592 ft | 475 kts | 185° |
| 2026-04-26 18:33 | 54.97060 | 9.96739 | 28004 ft | 471 kts | 185° |
| 2026-04-26 18:33 | 54.93834 | 9.96626 | 27452 ft | 467 kts | 185° |
| 2026-04-26 18:33 | 54.90574 | 9.96512 | 26864 ft | 463 kts | 185° |
| 2026-04-26 18:33 | 54.87350 | 9.96399 | 26271 ft | 461 kts | 185° |
| 2026-04-26 18:34 | 54.84157 | 9.96287 | 25739 ft | 456 kts | 185° |
| 2026-04-26 18:34 | 54.81049 | 9.96434 | 25657 ft | 445 kts | 178° |
| 2026-04-26 18:34 | 54.78014 | 9.97296 | 25327 ft | 440 kts | 172° |
| 2026-04-26 18:34 | 54.74980 | 9.98429 | 24485 ft | 447 kts | 171° |
| 2026-04-26 18:35 | 54.71923 | 9.99628 | 23776 ft | 450 kts | 170° |
| 2026-04-26 18:35 | 54.68915 | 10.00824 | 23111 ft | 449 kts | 170° |
| 2026-04-26 18:35 | 54.65855 | 10.02048 | 22505 ft | 446 kts | 169° |
| 2026-04-26 18:35 | 54.62872 | 10.03297 | 21857 ft | 444 kts | 169° |
| 2026-04-26 18:36 | 54.59866 | 10.04579 | 21212 ft | 443 kts | 169° |
| 2026-04-26 18:36 | 54.56884 | 10.05846 | 20606 ft | 437 kts | 169° |
| 2026-04-26 18:36 | 54.53985 | 10.07075 | 19659 ft | 427 kts | 169° |
| 2026-04-26 18:36 | 54.51131 | 10.08280 | 18294 ft | 420 kts | 169° |
| 2026-04-26 18:37 | 54.48296 | 10.09472 | 16668 ft | 413 kts | 168° |
| 2026-04-26 18:37 | 54.45518 | 10.10637 | 15112 ft | 407 kts | 168° |
| 2026-04-26 18:37 | 54.42825 | 10.11765 | 13791 ft | 398 kts | 168° |
| 2026-04-26 18:37 | 54.40202 | 10.12865 | 13194 ft | 373 kts | 168° |
| 2026-04-26 18:38 | 54.37768 | 10.13885 | 12844 ft | 352 kts | 168° |
| 2026-04-26 18:38 | 54.35421 | 10.14865 | 12415 ft | 342 kts | 168° |
| 2026-04-26 18:38 | 54.33101 | 10.15828 | 11962 ft | 345 kts | 168° |
| 2026-04-26 18:38 | 54.30742 | 10.16807 | 11474 ft | 346 kts | 168° |
| 2026-04-26 18:39 | 54.28424 | 10.17769 | 11078 ft | 347 kts | 168° |
| 2026-04-26 18:39 | 54.26101 | 10.18735 | 10929 ft | 337 kts | 168° |
| 2026-04-26 18:39 | 54.23871 | 10.19661 | 10804 ft | 327 kts | 168° |
| 2026-04-26 18:39 | 54.21681 | 10.20570 | 10676 ft | 318 kts | 168° |
| 2026-04-26 18:40 | 54.19537 | 10.21458 | 10513 ft | 312 kts | 168° |
| 2026-04-26 18:40 | 54.17420 | 10.22332 | 10192 ft | 312 kts | 168° |
| 2026-04-26 18:40 | 54.15338 | 10.23191 | 9891 ft | 310 kts | 168° |
| 2026-04-26 18:40 | 54.13250 | 10.24053 | 9598 ft | 307 kts | 168° |
| 2026-04-26 18:41 | 54.11169 | 10.24911 | 9300 ft | 305 kts | 168° |
| 2026-04-26 18:41 | 54.09126 | 10.25752 | 8985 ft | 303 kts | 168° |
| 2026-04-26 18:41 | 54.07102 | 10.26584 | 8697 ft | 300 kts | 168° |
| 2026-04-26 18:41 | 54.05068 | 10.27420 | 8403 ft | 298 kts | 168° |
| 2026-04-26 18:42 | 54.03063 | 10.28243 | 8105 ft | 295 kts | 168° |
| 2026-04-26 18:42 | 54.01072 | 10.29060 | 7810 ft | 292 kts | 168° |
| 2026-04-26 18:42 | 53.99106 | 10.29866 | 7378 ft | 287 kts | 168° |
| 2026-04-26 18:42 | 53.97198 | 10.30648 | 6739 ft | 283 kts | 168° |
| 2026-04-26 18:43 | 53.95288 | 10.31430 | 5990 ft | 278 kts | 168° |
| 2026-04-26 18:43 | 53.93440 | 10.32186 | 5413 ft | 271 kts | 169° |
| 2026-04-26 18:43 | 53.91657 | 10.32917 | 5199 ft | 254 kts | 169° |
| 2026-04-26 18:43 | 53.89968 | 10.33608 | 5057 ft | 244 kts | 169° |
| 2026-04-26 18:44 | 53.88362 | 10.34262 | 4919 ft | 237 kts | 169° |
| 2026-04-26 18:44 | 53.86763 | 10.34834 | 4772 ft | 230 kts | 174° |
| 2026-04-26 18:44 | 53.85199 | 10.35036 | 4644 ft | 221 kts | 184° |
| 2026-04-26 18:44 | 53.83690 | 10.34818 | 4503 ft | 212 kts | 193° |
| 2026-04-26 18:45 | 53.82295 | 10.34239 | 4394 ft | 204 kts | 201° |
| 2026-04-26 18:45 | 53.80999 | 10.33337 | 4262 ft | 197 kts | 210° |
| 2026-04-26 18:45 | 53.79854 | 10.32193 | 4150 ft | 187 kts | 218° |
| 2026-04-26 18:45 | 53.78900 | 10.30809 | 4072 ft | 174 kts | 226° |
| 2026-04-26 18:46 | 53.78103 | 10.29365 | 3854 ft | 168 kts | 230° |
| 2026-04-26 18:46 | 53.77332 | 10.27857 | 3547 ft | 168 kts | 231° |
| 2026-04-26 18:46 | 53.76586 | 10.26349 | 3285 ft | 165 kts | 231° |
| 2026-04-26 18:46 | 53.75860 | 10.24865 | 3017 ft | 165 kts | 231° |
| 2026-04-26 18:47 | 53.75116 | 10.23350 | 2990 ft | 167 kts | 231° |
| 2026-04-26 18:47 | 53.74364 | 10.21827 | 2989 ft | 166 kts | 232° |
| 2026-04-26 18:47 | 53.73634 | 10.20347 | 2991 ft | 165 kts | 232° |
| 2026-04-26 18:47 | 53.72894 | 10.18843 | 2936 ft | 165 kts | 232° |
| 2026-04-26 18:48 | 53.72158 | 10.17349 | 2740 ft | 164 kts | 232° |
| 2026-04-26 18:48 | 53.71434 | 10.15874 | 2509 ft | 166 kts | 232° |
| 2026-04-26 18:48 | 53.70689 | 10.14359 | 2282 ft | 166 kts | 233° |
| 2026-04-26 18:48 | 53.69960 | 10.12874 | 2067 ft | 165 kts | 232° |
| 2026-04-26 18:49 | 53.69224 | 10.11378 | 1837 ft | 165 kts | 233° |
| 2026-04-26 18:49 | 53.68512 | 10.09933 | 1591 ft | 153 kts | 233° |
| 2026-04-26 18:49 | 53.67857 | 10.08604 | 1385 ft | 140 kts | 234° |
| 2026-04-26 18:49 | 53.67269 | 10.07408 | 1207 ft | 130 kts | 234° |
| 2026-04-26 18:50 | 53.66692 | 10.06233 | 1038 ft | 131 kts | 233° |
| 2026-04-26 18:50 | 53.66092 | 10.05044 | 858 ft | 132 kts | 235° |
| 2026-04-26 18:50 | 53.65510 | 10.03826 | 686 ft | 134 kts | 238° |
| 2026-04-26 18:50 | 53.64889 | 10.02575 | 495 ft | 147 kts | 231° |
| 2026-04-26 18:51 | 53.64239 | 10.01284 | 308 ft | 137 kts | 236° |
| 2026-04-26 18:51 | 53.63654 | 10.00088 | 103 ft | 125 kts | 236° |
| 2026-04-26 18:51 | 53.63165 | 9.99084 | 51 ft | 90 kts | 230° |
| 2026-04-26 18:51 | 53.62868 | 9.98474 | 48 ft | 58 kts | 229° |
| 2026-04-26 18:52 | 53.62633 | 9.98007 | 46 ft | 33 kts | 229° |
| 2026-04-26 18:52 | 53.62519 | 9.97802 | 45 ft | 18 kts | 207° |
| 2026-04-26 18:52 | 53.62447 | 9.97833 | 47 ft | 6 kts | 133° |
| 2026-04-26 18:52 | 53.62434 | 9.97897 | 49 ft | 9 kts | 97° |
| 2026-04-26 18:53 | 53.62440 | 9.98051 | 51 ft | 14 kts | 81° |
| 2026-04-26 18:53 | 53.62463 | 9.98219 | 51 ft | 16 kts | 78° |
| 2026-04-26 18:53 | 53.62486 | 9.98409 | 51 ft | 17 kts | 79° |
| 2026-04-26 18:53 | 53.62508 | 9.98614 | 49 ft | 15 kts | 79° |
| 2026-04-26 18:54 | 53.62528 | 9.98793 | 50 ft | 16 kts | 79° |
| 2026-04-26 18:54 | 53.62545 | 9.98942 | 51 ft | 0 kts | 78° |
| 2026-04-26 18:54 | 53.62548 | 9.98961 | 51 ft | 3 kts | 78° |
| 2026-04-26 18:54 | 53.62554 | 9.99011 | 49 ft | 7 kts | 78° |
| 2026-04-26 18:55 | 53.62567 | 9.99114 | 49 ft | 10 kts | 79° |
| 2026-04-26 18:55 | 53.62568 | 9.99191 | 51 ft | 2 kts | 124° |
| 2026-04-26 18:55 | 53.62522 | 9.99218 | 51 ft | 10 kts | 171° |
| 2026-04-26 18:55 | 53.62464 | 9.99225 | 51 ft | 6 kts | 176° |
| 2026-04-26 18:56 | 53.62444 | 9.99227 | 56 ft | 0 kts | 176° |
| 2026-04-26 18:56 | 53.62412 | 9.99234 | 52 ft | 10 kts | 167° |
| 2026-04-26 18:56 | 53.62389 | 9.99282 | 57 ft | 2 kts | 95° |
| 2026-04-26 18:56 | 53.62389 | 9.99316 | 53 ft | 0 kts | 91° |